createdAt,value
2023-05-11T00:00:04.429Z,65.39
2023-05-11T00:01:04.434Z,65.62
2023-05-11T00:02:04.425Z,65.64
2023-05-11T00:03:04.604Z,64.74
2023-05-11T00:04:04.472Z,64.88
2023-05-11T00:05:04.411Z,65.39
2023-05-11T00:06:04.402Z,65.31
2023-05-11T00:07:04.409Z,65.12
2023-05-11T00:08:04.370Z,64.79
2023-05-11T00:09:04.391Z,64.59
2023-05-11T00:10:04.347Z,64.48
2023-05-11T00:11:04.366Z,64.49
2023-05-11T00:12:04.346Z,64.64
2023-05-11T00:13:04.357Z,64.81
2023-05-11T00:14:04.319Z,65.06
2023-05-11T00:15:04.345Z,65.00
2023-05-11T00:16:04.429Z,66.05
2023-05-11T00:17:04.331Z,65.77
2023-05-11T00:18:04.331Z,65.98
2023-05-11T00:19:04.444Z,66.29
2023-05-11T00:20:04.297Z,66.68
2023-05-11T00:21:04.295Z,67.08
2023-05-11T00:22:04.323Z,67.02
2023-05-11T00:23:04.318Z,66.69
2023-05-11T00:24:04.333Z,67.01
2023-05-11T00:25:04.269Z,66.90
2023-05-11T00:26:04.292Z,66.95
2023-05-11T00:27:04.274Z,67.26
2023-05-11T00:28:04.242Z,66.84
2023-05-11T00:29:04.282Z,66.12
2023-05-11T00:30:04.275Z,65.91
2023-05-11T00:31:04.311Z,65.79
2023-05-11T00:32:04.307Z,65.75
2023-05-11T00:33:04.285Z,66.22
2023-05-11T00:34:04.240Z,66.46
2023-05-11T00:35:04.201Z,66.38
2023-05-11T00:36:04.273Z,66.54
2023-05-11T00:37:04.180Z,66.98
2023-05-11T00:38:04.206Z,67.33
2023-05-11T00:39:04.186Z,67.69
2023-05-11T00:40:04.191Z,67.93
2023-05-11T00:41:04.253Z,67.89
2023-05-11T00:42:04.211Z,67.98
2023-05-11T00:43:04.176Z,68.00
2023-05-11T00:44:04.181Z,67.90
2023-05-11T00:45:04.122Z,67.67
2023-05-11T00:46:04.219Z,67.53
2023-05-11T00:47:04.210Z,67.77
2023-05-11T00:48:04.162Z,67.44
2023-05-11T00:49:04.157Z,65.40
2023-05-11T00:50:04.120Z,64.68
2023-05-11T00:51:04.334Z,65.31
2023-05-11T00:52:04.108Z,65.18
2023-05-11T00:53:04.113Z,65.50
2023-05-11T00:54:04.103Z,65.96
2023-05-11T00:55:04.376Z,65.91
2023-05-11T00:56:04.117Z,66.36
2023-05-11T00:57:04.245Z,65.93
2023-05-11T00:58:04.103Z,66.13
2023-05-11T00:59:04.137Z,66.17
2023-05-11T01:00:04.201Z,66.14
2023-05-11T01:01:04.321Z,65.43
2023-05-11T01:02:04.270Z,65.87
2023-05-11T01:03:06.943Z,65.11
2023-05-11T01:04:04.219Z,65.33
2023-05-11T01:05:04.199Z,64.70
2023-05-11T01:06:04.215Z,64.51
2023-05-11T01:07:04.169Z,64.41
2023-05-11T01:08:04.185Z,64.86
2023-05-11T01:09:04.160Z,64.96
2023-05-11T01:10:04.205Z,65.04
2023-05-11T01:11:04.188Z,65.80
2023-05-11T01:12:04.159Z,65.36
2023-05-11T01:13:04.167Z,65.34
2023-05-11T01:14:04.135Z,66.34
2023-05-11T01:15:04.133Z,66.83
2023-05-11T01:16:04.211Z,65.86
2023-05-11T01:17:04.186Z,66.91
2023-05-11T01:18:04.139Z,67.04
2023-05-11T01:19:04.275Z,66.50
2023-05-11T01:20:04.119Z,66.66
2023-05-11T01:21:04.111Z,66.14
2023-05-11T01:22:04.078Z,65.78
2023-05-11T01:23:04.068Z,66.02
2023-05-11T01:24:04.062Z,66.81
2023-05-11T01:25:04.055Z,66.40
2023-05-11T01:26:04.051Z,66.56
2023-05-11T01:27:04.084Z,66.58
2023-05-11T01:28:04.043Z,66.78
2023-05-11T01:29:04.017Z,66.45
2023-05-11T01:30:04.086Z,66.63
2023-05-11T01:31:04.016Z,66.61
2023-05-11T01:32:04.061Z,67.32
2023-05-11T01:33:04.053Z,68.11
2023-05-11T01:34:03.983Z,68.57
2023-05-11T01:35:04.000Z,68.09
2023-05-11T01:36:03.985Z,68.22
2023-05-11T01:37:03.964Z,68.32
2023-05-11T01:38:03.966Z,68.37
2023-05-11T01:39:03.956Z,68.39
2023-05-11T01:40:03.945Z,68.00
2023-05-11T01:41:03.926Z,67.57
2023-05-11T01:42:03.938Z,67.28
2023-05-11T01:43:03.959Z,67.08
2023-05-11T01:44:03.930Z,66.14
2023-05-11T01:45:03.915Z,66.76
2023-05-11T01:46:03.928Z,66.25
2023-05-11T01:47:03.900Z,66.58
2023-05-11T01:48:03.931Z,67.11
2023-05-11T01:49:03.872Z,67.02
2023-05-11T01:50:03.871Z,67.30
2023-05-11T01:51:03.896Z,67.28
2023-05-11T01:52:03.859Z,66.60
2023-05-11T01:53:03.865Z,67.05
2023-05-11T01:54:03.835Z,67.04
2023-05-11T01:55:03.895Z,66.27
2023-05-11T01:56:03.847Z,65.79
2023-05-11T01:57:03.820Z,65.95
2023-05-11T01:58:03.849Z,65.66
2023-05-11T01:59:03.813Z,66.16
2023-05-11T02:00:03.827Z,65.71
2023-05-11T02:01:03.842Z,66.24
2023-05-11T02:02:03.804Z,65.97
2023-05-11T02:03:03.867Z,66.20
2023-05-11T02:04:03.784Z,66.43
2023-05-11T02:05:03.790Z,66.35
2023-05-11T02:06:03.778Z,66.64
2023-05-11T02:07:03.762Z,66.12
2023-05-11T02:08:03.761Z,65.72
2023-05-11T02:09:03.777Z,66.14
2023-05-11T02:10:03.740Z,66.25
2023-05-11T02:11:03.795Z,65.41
2023-05-11T02:12:03.729Z,65.12
2023-05-11T02:13:03.771Z,65.23
2023-05-11T02:14:03.725Z,65.59
2023-05-11T02:15:03.787Z,65.02
2023-05-11T02:16:03.855Z,65.16
2023-05-11T02:17:03.852Z,65.73
2023-05-11T02:18:03.959Z,65.77
2023-05-11T02:19:03.986Z,65.87
2023-05-11T02:20:03.896Z,65.87
2023-05-11T02:21:03.897Z,65.42
2023-05-11T02:22:03.933Z,65.44
2023-05-11T02:23:03.937Z,65.96
2023-05-11T02:24:03.965Z,66.08
2023-05-11T02:25:04.030Z,66.02
2023-05-11T02:26:04.090Z,66.28
2023-05-11T02:27:04.072Z,65.59
2023-05-11T02:28:04.087Z,65.75
2023-05-11T02:29:04.165Z,65.99
2023-05-11T02:30:04.114Z,65.90
2023-05-11T02:31:04.167Z,65.63
2023-05-11T02:32:04.199Z,65.72
2023-05-11T02:33:04.248Z,65.76
2023-05-11T02:34:04.210Z,65.68
2023-05-11T02:35:04.266Z,65.47
2023-05-11T02:36:04.308Z,65.98
2023-05-11T02:37:04.326Z,65.62
2023-05-11T02:38:04.316Z,64.79
2023-05-11T02:39:04.346Z,65.10
2023-05-11T02:40:04.353Z,65.38
2023-05-11T02:41:04.387Z,65.45
2023-05-11T02:42:04.392Z,65.34
2023-05-11T02:43:04.421Z,65.49
2023-05-11T02:44:04.471Z,65.71
2023-05-11T02:45:04.496Z,65.61
2023-05-11T02:46:04.577Z,65.16
2023-05-11T02:47:04.620Z,65.02
2023-05-11T02:48:04.647Z,64.59
2023-05-11T02:49:04.667Z,64.64
2023-05-11T02:50:04.642Z,64.51
2023-05-11T02:51:04.656Z,64.59
2023-05-11T02:52:04.693Z,64.65
2023-05-11T02:53:04.753Z,65.00
2023-05-11T02:54:04.764Z,65.48
2023-05-11T02:55:04.784Z,65.30
2023-05-11T02:56:04.794Z,65.12
2023-05-11T02:57:04.816Z,65.24
2023-05-11T02:58:04.864Z,65.30
2023-05-11T02:59:04.860Z,65.52
2023-05-11T03:00:04.924Z,65.46
2023-05-11T03:01:05.051Z,65.42
2023-05-11T03:02:05.191Z,65.71
2023-05-11T03:03:05.118Z,65.99
2023-05-11T03:04:05.150Z,65.96
2023-05-11T03:05:05.183Z,65.72
2023-05-11T03:06:05.243Z,65.61
2023-05-11T03:07:05.311Z,65.81
2023-05-11T03:08:05.346Z,65.64
2023-05-11T03:09:06.092Z,65.57
2023-05-11T03:10:05.363Z,65.82
2023-05-11T03:11:05.386Z,66.24
2023-05-11T03:12:05.423Z,66.29
2023-05-11T03:13:05.425Z,66.01
2023-05-11T03:14:05.499Z,66.00
2023-05-11T03:15:05.564Z,65.86
2023-05-11T03:16:05.595Z,66.26
2023-05-11T03:17:05.666Z,66.06
2023-05-11T03:18:05.672Z,66.19
2023-05-11T03:19:05.724Z,66.18
2023-05-11T03:20:05.655Z,66.05
2023-05-11T03:21:05.735Z,65.99
2023-05-11T03:22:05.764Z,66.08
2023-05-11T03:23:05.822Z,65.47
2023-05-11T03:24:05.887Z,65.10
2023-05-11T03:25:05.937Z,65.51
2023-05-11T03:26:05.994Z,65.91
2023-05-11T03:27:06.041Z,65.56
2023-05-11T03:28:06.113Z,65.49
2023-05-11T03:29:06.141Z,64.91
2023-05-11T03:30:06.209Z,64.76
2023-05-11T03:31:06.263Z,64.61
2023-05-11T03:32:06.271Z,65.08
2023-05-11T03:33:06.311Z,65.53
2023-05-11T03:34:06.387Z,65.63
2023-05-11T03:35:06.418Z,65.54
2023-05-11T03:36:06.466Z,65.52
2023-05-11T03:37:06.541Z,65.62
2023-05-11T03:38:06.610Z,65.46
2023-05-11T03:39:06.593Z,65.58
2023-05-11T03:40:06.621Z,65.54
2023-05-11T03:41:06.670Z,65.18
2023-05-11T03:42:06.701Z,65.18
2023-05-11T03:43:06.763Z,65.04
2023-05-11T03:44:06.776Z,65.25
2023-05-11T03:45:06.822Z,65.32
2023-05-11T03:46:06.849Z,65.44
2023-05-11T03:47:06.825Z,65.52
2023-05-11T03:48:06.850Z,65.42
2023-05-11T03:49:06.862Z,65.91
2023-05-11T03:50:06.936Z,65.69
2023-05-11T03:51:06.969Z,65.87
2023-05-11T03:52:07.033Z,65.72
2023-05-11T03:53:07.059Z,66.30
2023-05-11T03:54:07.082Z,66.54
2023-05-11T03:55:07.140Z,66.29
2023-05-11T03:56:07.141Z,66.47
2023-05-11T03:57:07.127Z,66.41
2023-05-11T03:58:07.132Z,66.87
2023-05-11T03:59:07.200Z,67.07
2023-05-11T04:00:07.277Z,67.21
2023-05-11T04:01:07.289Z,67.10
2023-05-11T04:02:07.356Z,67.36
2023-05-11T04:03:07.406Z,67.24
2023-05-11T04:04:07.433Z,67.21
2023-05-11T04:05:07.319Z,67.16
2023-05-11T04:06:07.383Z,66.86
2023-05-11T04:07:07.401Z,67.01
2023-05-11T04:08:07.409Z,66.57
2023-05-11T04:09:07.436Z,66.83
2023-05-11T04:10:07.462Z,66.95
2023-05-11T04:11:07.527Z,66.88
2023-05-11T04:12:07.554Z,66.57
2023-05-11T04:13:07.617Z,66.11
2023-05-11T04:14:07.654Z,66.48
2023-05-11T04:15:07.680Z,66.08
2023-05-11T04:16:07.753Z,65.73
2023-05-11T04:17:07.725Z,65.85
2023-05-11T04:18:07.783Z,64.91
2023-05-11T04:19:07.818Z,65.07
2023-05-11T04:20:07.806Z,65.79
2023-05-11T04:21:07.825Z,66.01
2023-05-11T04:22:07.860Z,66.09
2023-05-11T04:23:10.321Z,65.41
2023-05-11T04:24:08.077Z,65.40
2023-05-11T04:25:08.091Z,65.03
2023-05-11T04:26:08.073Z,64.94
2023-05-11T04:27:08.082Z,65.30
2023-05-11T04:28:08.128Z,65.02
2023-05-11T04:29:08.172Z,64.94
2023-05-11T04:30:08.236Z,65.12
2023-05-11T04:31:08.323Z,65.85
2023-05-11T04:32:08.322Z,66.42
2023-05-11T04:33:08.399Z,66.84
2023-05-11T04:34:08.397Z,66.96
2023-05-11T04:35:08.393Z,67.33
2023-05-11T04:36:08.398Z,66.27
2023-05-11T04:37:08.437Z,66.66
2023-05-11T04:38:08.402Z,67.86
2023-05-11T04:39:08.411Z,66.84
2023-05-11T04:40:08.892Z,65.95
2023-05-11T04:41:08.483Z,65.93
2023-05-11T04:42:08.465Z,65.34
2023-05-11T04:43:08.482Z,64.76
2023-05-11T04:44:08.478Z,64.74
2023-05-11T04:45:08.513Z,64.61
2023-05-11T04:46:08.539Z,64.96
2023-05-11T04:47:08.635Z,64.24
2023-05-11T04:48:08.619Z,64.32
2023-05-11T04:49:08.616Z,64.55
2023-05-11T04:50:08.626Z,64.34
2023-05-11T04:51:08.633Z,64.79
2023-05-11T04:52:08.661Z,64.43
2023-05-11T04:53:08.662Z,64.48
2023-05-11T04:54:08.726Z,64.65
2023-05-11T04:55:08.699Z,64.94
2023-05-11T04:56:08.692Z,64.55
2023-05-11T04:57:08.723Z,64.37
2023-05-11T04:58:08.742Z,64.40
2023-05-11T04:59:08.783Z,64.51
2023-05-11T05:00:08.944Z,64.36
2023-05-11T05:01:08.962Z,64.46
2023-05-11T05:02:08.885Z,64.75
2023-05-11T05:03:08.997Z,64.71
2023-05-11T05:04:08.978Z,64.75
2023-05-11T05:05:08.948Z,64.77
2023-05-11T05:06:08.954Z,64.59
2023-05-11T05:07:08.981Z,64.42
2023-05-11T05:08:08.988Z,64.55
2023-05-11T05:09:09.986Z,64.27
2023-05-11T05:10:09.121Z,64.27
2023-05-11T05:11:09.065Z,64.41
2023-05-11T05:12:09.089Z,65.14
2023-05-11T05:13:09.155Z,65.42
2023-05-11T05:14:09.177Z,65.77
2023-05-11T05:15:09.232Z,65.03
2023-05-11T05:16:09.287Z,64.55
2023-05-11T05:17:09.370Z,64.38
2023-05-11T05:18:09.427Z,64.77
2023-05-11T05:19:09.461Z,64.31
2023-05-11T05:20:09.485Z,64.25
2023-05-11T05:21:09.523Z,64.16
2023-05-11T05:22:09.580Z,63.89
2023-05-11T05:23:09.656Z,63.76
2023-05-11T05:24:09.761Z,63.60
2023-05-11T05:25:09.715Z,63.61
2023-05-11T05:26:09.706Z,63.79
2023-05-11T05:27:09.686Z,63.85
2023-05-11T05:28:09.685Z,63.32
2023-05-11T05:29:09.750Z,63.54
2023-05-11T05:30:09.897Z,63.48
2023-05-11T05:31:10.445Z,64.01
2023-05-11T05:32:09.768Z,64.36
2023-05-11T05:33:09.808Z,63.64
2023-05-11T05:34:09.849Z,63.34
2023-05-11T05:35:10.446Z,64.74
2023-05-11T05:36:09.974Z,65.10
2023-05-11T05:37:10.021Z,65.09
2023-05-11T05:38:10.059Z,65.02
2023-05-11T05:39:10.055Z,64.96
2023-05-11T05:40:10.096Z,63.78
2023-05-11T05:41:10.151Z,63.52
2023-05-11T05:42:10.150Z,63.99
2023-05-11T05:43:10.214Z,64.44
2023-05-11T05:44:10.265Z,64.41
2023-05-11T05:45:12.473Z,64.15
2023-05-11T05:46:10.350Z,64.50
2023-05-11T05:47:10.288Z,64.74
2023-05-11T05:48:10.333Z,64.37
2023-05-11T05:49:10.323Z,64.26
2023-05-11T05:50:10.385Z,64.63
2023-05-11T05:51:10.315Z,63.92
2023-05-11T05:52:10.288Z,63.88
2023-05-11T05:53:10.259Z,63.89
2023-05-11T05:54:10.268Z,63.88
2023-05-11T05:55:10.286Z,63.89
2023-05-11T05:56:10.238Z,64.00
2023-05-11T05:57:10.224Z,64.36
2023-05-11T05:58:10.237Z,63.48
2023-05-11T05:59:10.208Z,63.99
2023-05-11T06:00:10.195Z,64.19
2023-05-11T06:01:10.200Z,64.27
2023-05-11T06:02:10.326Z,64.40
2023-05-11T06:03:10.438Z,64.36
2023-05-11T06:04:10.297Z,63.75
2023-05-11T06:05:10.235Z,64.39
2023-05-11T06:06:10.167Z,65.15
2023-05-11T06:07:10.187Z,64.67
2023-05-11T06:08:11.309Z,64.43
2023-05-11T06:09:10.149Z,64.04
2023-05-11T06:10:10.249Z,63.42
2023-05-11T06:11:10.419Z,63.29
2023-05-11T06:12:10.140Z,63.20
2023-05-11T06:13:10.131Z,63.18
2023-05-11T06:14:10.130Z,62.85
2023-05-11T06:15:10.128Z,62.82
2023-05-11T06:16:10.143Z,62.91
2023-05-11T06:17:10.114Z,63.02
2023-05-11T06:18:10.170Z,63.04
2023-05-11T06:19:10.197Z,63.30
2023-05-11T06:20:10.077Z,63.04
2023-05-11T06:21:10.080Z,63.27
2023-05-11T06:22:10.135Z,63.35
2023-05-11T06:23:10.074Z,62.99
2023-05-11T06:24:10.041Z,62.93
2023-05-11T06:25:10.044Z,62.80
2023-05-11T06:26:10.086Z,63.03
2023-05-11T06:27:10.027Z,62.97
2023-05-11T06:28:10.138Z,62.78
2023-05-11T06:29:10.040Z,62.68
2023-05-11T06:30:10.046Z,62.68
2023-05-11T06:31:10.108Z,62.46
2023-05-11T06:32:10.174Z,62.22
2023-05-11T06:33:10.166Z,62.21
2023-05-11T06:34:10.189Z,61.95
2023-05-11T06:35:10.190Z,61.88
2023-05-11T06:36:10.229Z,61.67
2023-05-11T06:37:10.212Z,61.31
2023-05-11T06:38:10.272Z,61.25
2023-05-11T06:39:10.222Z,61.19
2023-05-11T06:40:10.270Z,61.35
2023-05-11T06:41:10.414Z,62.20
2023-05-11T06:42:10.350Z,62.14
2023-05-11T06:43:10.425Z,63.27
2023-05-11T06:44:10.421Z,63.17
2023-05-11T06:45:10.522Z,63.40
2023-05-11T06:46:10.527Z,63.37
2023-05-11T06:47:10.524Z,63.61
2023-05-11T06:48:10.600Z,63.61
2023-05-11T06:49:10.638Z,63.13
2023-05-11T06:50:10.646Z,63.12
2023-05-11T06:51:10.662Z,63.57
2023-05-11T06:52:10.669Z,63.94
2023-05-11T06:53:10.737Z,64.43
2023-05-11T06:54:10.767Z,64.19
2023-05-11T06:55:10.842Z,64.38
2023-05-11T06:56:10.847Z,63.89
2023-05-11T06:57:12.657Z,63.61
2023-05-11T06:58:10.841Z,63.40
2023-05-11T06:59:10.850Z,63.01
2023-05-11T07:00:10.823Z,62.73
2023-05-11T07:01:10.857Z,61.93
2023-05-11T07:02:10.814Z,62.15
2023-05-11T07:03:10.850Z,62.42
2023-05-11T07:04:10.844Z,63.09
2023-05-11T07:05:10.814Z,62.53
2023-05-11T07:06:10.805Z,62.49
2023-05-11T07:07:10.783Z,62.67
2023-05-11T07:08:10.785Z,62.41
2023-05-11T07:09:10.773Z,63.29
2023-05-11T07:10:10.751Z,63.40
2023-05-11T07:11:10.762Z,63.23
2023-05-11T07:12:10.744Z,62.90
2023-05-11T07:13:10.748Z,62.44
2023-05-11T07:14:10.727Z,62.26
2023-05-11T07:15:10.728Z,62.30
2023-05-11T07:16:10.755Z,62.48
2023-05-11T07:17:10.831Z,62.24
2023-05-11T07:18:10.766Z,61.94
2023-05-11T07:19:10.799Z,61.55
2023-05-11T07:20:11.394Z,61.74
2023-05-11T07:21:10.704Z,61.98
2023-05-11T07:22:11.499Z,61.98
2023-05-11T07:23:10.685Z,61.74
2023-05-11T07:24:11.416Z,61.67
2023-05-11T07:25:10.670Z,62.09
2023-05-11T07:26:10.666Z,61.99
2023-05-11T07:27:10.696Z,62.05
2023-05-11T07:28:10.686Z,61.45
2023-05-11T07:29:10.644Z,60.93
2023-05-11T07:30:10.717Z,60.63
2023-05-11T07:31:10.722Z,60.78
2023-05-11T07:32:10.640Z,60.39
2023-05-11T07:33:10.708Z,60.33
2023-05-11T07:34:10.689Z,60.01
2023-05-11T07:35:10.650Z,60.49
2023-05-11T07:36:10.930Z,60.94
2023-05-11T07:37:10.688Z,61.52
2023-05-11T07:38:10.703Z,62.26
2023-05-11T07:39:10.768Z,62.32
2023-05-11T07:40:10.720Z,61.25
2023-05-11T07:41:12.652Z,61.38
2023-05-11T07:42:10.804Z,61.35
2023-05-11T07:43:10.795Z,61.87
2023-05-11T07:44:10.931Z,61.37
2023-05-11T07:45:10.883Z,62.09
2023-05-11T07:46:11.466Z,61.87
2023-05-11T07:47:10.961Z,61.62
2023-05-11T07:48:10.993Z,61.50
2023-05-11T07:49:17.304Z,61.79
2023-05-11T07:50:12.003Z,62.29
2023-05-11T07:51:10.998Z,62.33
2023-05-11T07:52:11.022Z,62.38
2023-05-11T07:53:10.985Z,62.33
2023-05-11T07:54:10.960Z,62.34
2023-05-11T07:55:10.973Z,62.21
2023-05-11T07:56:10.950Z,61.97
2023-05-11T07:57:10.928Z,61.50
2023-05-11T07:58:10.951Z,61.65
2023-05-11T07:59:10.937Z,61.86
2023-05-11T08:00:11.352Z,61.60
2023-05-11T08:01:11.038Z,61.42
2023-05-11T08:02:13.127Z,61.70
2023-05-11T08:03:11.153Z,61.77
2023-05-11T08:04:11.108Z,61.74
2023-05-11T08:05:11.128Z,61.22
2023-05-11T08:06:11.216Z,60.32
2023-05-11T08:07:11.156Z,60.55
2023-05-11T08:08:11.156Z,60.69
2023-05-11T08:09:11.151Z,60.56
2023-05-11T08:10:11.295Z,59.78
2023-05-11T08:11:11.215Z,59.73
2023-05-11T08:12:11.239Z,60.08
2023-05-11T08:13:11.300Z,60.20
2023-05-11T08:14:11.294Z,60.16
2023-05-11T08:15:11.330Z,60.14
2023-05-11T08:16:11.397Z,59.85
2023-05-11T08:17:11.431Z,59.54
2023-05-11T08:18:11.444Z,59.60
2023-05-11T08:19:11.466Z,59.25
2023-05-11T08:20:12.473Z,59.29
2023-05-11T08:21:12.478Z,59.49
2023-05-11T08:22:11.579Z,59.52
2023-05-11T08:23:11.554Z,59.08
2023-05-11T08:24:11.585Z,59.02
2023-05-11T08:25:11.707Z,58.81
2023-05-11T08:26:11.621Z,58.69
2023-05-11T08:27:11.612Z,58.39
2023-05-11T08:28:11.641Z,58.87
2023-05-11T08:29:11.673Z,59.27
2023-05-11T08:30:12.108Z,59.77
2023-05-11T08:31:11.746Z,60.00
2023-05-11T08:32:11.850Z,59.92
2023-05-11T08:33:29.180Z,60.19
2023-05-11T08:34:19.145Z,59.69
2023-05-11T08:35:12.770Z,59.46
2023-05-11T08:36:11.705Z,59.45
2023-05-11T08:37:11.700Z,59.26
2023-05-11T08:38:11.734Z,59.21
2023-05-11T08:39:11.677Z,58.95
2023-05-11T08:40:13.213Z,58.71
2023-05-11T08:41:11.682Z,58.67
2023-05-11T08:42:11.675Z,57.86
2023-05-11T08:43:11.672Z,58.23
2023-05-11T08:44:11.649Z,59.12
2023-05-11T08:45:11.644Z,59.75
2023-05-11T08:46:11.693Z,59.83
2023-05-11T08:47:22.486Z,59.50
2023-05-11T08:48:13.427Z,59.03
2023-05-11T08:49:11.659Z,59.11
2023-05-11T08:50:11.637Z,58.79
2023-05-11T08:51:11.934Z,58.86
2023-05-11T08:52:11.610Z,59.56
2023-05-11T08:53:11.596Z,59.46
2023-05-11T08:54:11.597Z,59.29
2023-05-11T08:55:11.604Z,58.77
2023-05-11T08:56:11.673Z,58.48
2023-05-11T08:57:11.555Z,58.60
2023-05-11T08:58:11.558Z,58.70
2023-05-11T08:59:11.540Z,57.96
2023-05-11T09:00:11.581Z,58.17
2023-05-11T09:01:11.548Z,58.65
2023-05-11T09:02:11.537Z,58.76
2023-05-11T09:03:11.534Z,58.53
2023-05-11T09:04:11.529Z,58.58
2023-05-11T09:05:11.547Z,58.96
2023-05-11T09:06:11.502Z,59.41
2023-05-11T09:07:11.487Z,59.15
2023-05-11T09:08:11.488Z,58.78
2023-05-11T09:09:11.523Z,59.14
2023-05-11T09:10:13.004Z,59.10
2023-05-11T09:11:11.557Z,59.01
2023-05-11T09:12:11.623Z,58.81
2023-05-11T09:13:11.682Z,58.00
2023-05-11T09:14:11.712Z,57.99
2023-05-11T09:15:11.767Z,58.43
2023-05-11T09:16:23.673Z,58.29
2023-05-11T09:17:12.891Z,58.01
2023-05-11T09:18:11.848Z,58.24
2023-05-11T09:19:11.892Z,58.04
2023-05-11T09:20:11.809Z,58.06
2023-05-11T09:21:11.774Z,57.91
2023-05-11T09:22:11.796Z,57.30
2023-05-11T09:23:11.780Z,57.16
2023-05-11T09:24:11.766Z,58.04
2023-05-11T09:25:11.758Z,58.20
2023-05-11T09:26:11.762Z,58.23
2023-05-11T09:27:11.754Z,58.19
2023-05-11T09:28:15.661Z,57.68
2023-05-11T09:29:11.736Z,57.69
2023-05-11T09:30:11.726Z,57.87
2023-05-11T09:31:11.732Z,57.92
2023-05-11T09:32:11.900Z,57.69
2023-05-11T09:33:11.799Z,57.49
2023-05-11T09:34:11.733Z,57.25
2023-05-11T09:35:11.766Z,57.43
2023-05-11T09:36:11.688Z,57.52
2023-05-11T09:37:11.694Z,57.59
2023-05-11T09:38:11.668Z,57.87
2023-05-11T09:39:15.553Z,57.46
2023-05-11T09:40:25.817Z,57.49
2023-05-11T09:41:12.724Z,57.25
2023-05-11T09:42:11.682Z,57.29
2023-05-11T09:43:11.640Z,57.12
2023-05-11T09:44:11.652Z,57.15
2023-05-11T09:45:11.634Z,57.09
2023-05-11T09:46:12.475Z,57.31
2023-05-11T09:47:11.624Z,56.82
2023-05-11T09:48:11.640Z,57.07
2023-05-11T09:49:11.628Z,57.31
2023-05-11T09:50:11.620Z,56.20
2023-05-11T09:51:11.696Z,56.54
2023-05-11T09:52:11.772Z,56.92
2023-05-11T09:53:11.598Z,57.34
2023-05-11T09:54:11.572Z,57.10
2023-05-11T09:55:11.617Z,56.87
2023-05-11T09:56:11.674Z,57.11
2023-05-11T09:57:11.724Z,57.58
2023-05-11T09:58:11.793Z,57.53
2023-05-11T09:59:11.788Z,57.35
2023-05-11T10:00:11.841Z,57.55
2023-05-11T10:01:11.956Z,57.87
2023-05-11T10:02:11.895Z,58.11
2023-05-11T10:03:12.026Z,58.45
2023-05-11T10:04:22.773Z,58.63
2023-05-11T10:05:12.987Z,58.27
2023-05-11T10:06:11.986Z,57.88
2023-05-11T10:07:11.939Z,57.59
2023-05-11T10:08:11.929Z,57.34
2023-05-11T10:09:11.939Z,57.36
2023-05-11T10:10:11.951Z,57.09
2023-05-11T10:11:11.907Z,57.22
2023-05-11T10:12:11.921Z,57.41
2023-05-11T10:13:11.892Z,57.39
2023-05-11T10:14:11.909Z,57.22
2023-05-11T10:15:11.879Z,57.24
2023-05-11T10:16:11.937Z,56.89
2023-05-11T10:17:11.876Z,56.73
2023-05-11T10:18:11.884Z,57.02
2023-05-11T10:19:11.916Z,56.91
2023-05-11T10:20:11.973Z,57.20
2023-05-11T10:21:11.955Z,57.21
2023-05-11T10:22:12.067Z,57.53
2023-05-11T10:23:11.984Z,57.57
2023-05-11T10:24:12.034Z,57.38
2023-05-11T10:25:12.075Z,57.47
2023-05-11T10:26:12.085Z,57.27
2023-05-11T10:27:12.506Z,56.51
2023-05-11T10:28:12.168Z,56.71
2023-05-11T10:29:12.215Z,56.60
2023-05-11T10:30:12.207Z,56.24
2023-05-11T10:31:12.288Z,55.96
2023-05-11T10:32:12.589Z,56.19
2023-05-11T10:33:12.506Z,56.12
2023-05-11T10:34:12.327Z,56.50
2023-05-11T10:35:12.436Z,57.01
2023-05-11T10:36:12.541Z,56.89
2023-05-11T10:37:13.362Z,56.28
2023-05-11T10:38:12.352Z,56.32
2023-05-11T10:39:12.371Z,56.81
2023-05-11T10:40:12.343Z,57.34
2023-05-11T10:41:12.366Z,57.48
2023-05-11T10:42:12.469Z,57.45
2023-05-11T10:43:12.336Z,56.88
2023-05-11T10:44:12.310Z,56.95
2023-05-11T10:45:12.328Z,57.09
2023-05-11T10:46:12.306Z,56.99
2023-05-11T10:47:12.316Z,57.18
2023-05-11T10:48:12.303Z,56.67
2023-05-11T10:49:12.307Z,56.63
2023-05-11T10:50:12.317Z,56.77
2023-05-11T10:51:12.350Z,56.43
2023-05-11T10:52:12.345Z,56.40
2023-05-11T10:53:12.366Z,56.41
2023-05-11T10:54:12.392Z,56.11
2023-05-11T10:55:12.472Z,55.87
2023-05-11T10:56:12.514Z,55.81
2023-05-11T10:57:12.566Z,55.78
2023-05-11T10:58:12.576Z,55.92
2023-05-11T10:59:12.660Z,55.35
2023-05-11T11:00:12.743Z,55.29
2023-05-11T11:01:12.803Z,55.14
2023-05-11T11:02:12.844Z,55.00
2023-05-11T11:03:12.843Z,54.84
2023-05-11T11:04:12.868Z,54.81
2023-05-11T11:05:12.890Z,55.06
2023-05-11T11:06:12.928Z,55.42
2023-05-11T11:07:12.937Z,55.36
2023-05-11T11:08:12.957Z,54.53
2023-05-11T11:09:13.034Z,54.31
2023-05-11T11:10:13.000Z,54.69
2023-05-11T11:11:13.018Z,54.75
2023-05-11T11:12:13.080Z,54.97
2023-05-11T11:13:13.132Z,55.36
2023-05-11T11:14:13.096Z,54.92
2023-05-11T11:15:13.153Z,54.21
2023-05-11T11:16:15.602Z,53.76
2023-05-11T11:17:13.180Z,54.05
2023-05-11T11:18:13.187Z,54.00
2023-05-11T11:19:13.121Z,53.97
2023-05-11T11:20:13.168Z,54.15
2023-05-11T11:21:13.113Z,54.20
2023-05-11T11:22:13.192Z,54.79
2023-05-11T11:23:13.159Z,54.48
2023-05-11T11:24:13.169Z,54.84
2023-05-11T11:25:13.150Z,54.40
2023-05-11T11:26:13.097Z,54.20
2023-05-11T11:27:13.132Z,54.37
2023-05-11T11:28:13.092Z,54.80
2023-05-11T11:29:13.108Z,54.57
2023-05-11T11:30:13.132Z,54.38
2023-05-11T11:31:13.121Z,53.81
2023-05-11T11:32:13.472Z,54.06
2023-05-11T11:33:13.162Z,54.40
2023-05-11T11:34:13.069Z,53.60
2023-05-11T11:35:13.015Z,53.34
2023-05-11T11:36:13.050Z,53.69
2023-05-11T11:37:13.002Z,53.38
2023-05-11T11:38:13.007Z,53.12
2023-05-11T11:39:13.003Z,52.98
2023-05-11T11:40:15.494Z,52.92
2023-05-11T11:41:12.964Z,53.01
2023-05-11T11:42:12.985Z,52.73
2023-05-11T11:43:12.960Z,52.55
2023-05-11T11:44:13.051Z,52.57
2023-05-11T11:45:12.940Z,52.37
2023-05-11T11:46:12.988Z,51.65
2023-05-11T11:47:12.940Z,51.95
2023-05-11T11:48:13.153Z,51.87
2023-05-11T11:49:12.933Z,51.86
2023-05-11T11:50:12.982Z,51.59
2023-05-11T11:51:12.996Z,51.52
2023-05-11T11:52:12.976Z,50.87
2023-05-11T11:53:12.948Z,51.23
2023-05-11T11:54:12.945Z,51.60
2023-05-11T11:55:12.897Z,51.53
2023-05-11T11:56:12.850Z,51.18
2023-05-11T11:57:12.850Z,50.68
2023-05-11T11:58:12.947Z,50.73
2023-05-11T11:59:12.840Z,50.46
2023-05-11T12:00:12.860Z,50.07
2023-05-11T12:01:12.838Z,50.12
2023-05-11T12:02:12.831Z,49.90
2023-05-11T12:03:12.961Z,50.16
2023-05-11T12:04:12.995Z,50.23
2023-05-11T12:05:12.830Z,50.38
2023-05-11T12:06:12.828Z,50.51
2023-05-11T12:07:12.805Z,50.48
2023-05-11T12:08:12.802Z,50.49
2023-05-11T12:09:12.899Z,49.93
2023-05-11T12:10:12.814Z,49.55
2023-05-11T12:11:12.808Z,49.42
2023-05-11T12:12:12.761Z,49.77
2023-05-11T12:13:12.779Z,50.25
2023-05-11T12:14:12.754Z,49.22
2023-05-11T12:15:12.766Z,48.73
2023-05-11T12:16:12.814Z,47.87
2023-05-11T12:17:12.718Z,48.31
2023-05-11T12:18:12.720Z,47.87
2023-05-11T12:19:12.753Z,47.91
2023-05-11T12:20:12.803Z,48.35
2023-05-11T12:21:12.703Z,48.72
2023-05-11T12:22:12.699Z,48.70
2023-05-11T12:23:12.738Z,48.29
2023-05-11T12:24:12.680Z,47.15
2023-05-11T12:25:12.663Z,46.82
2023-05-11T12:26:12.663Z,47.33
2023-05-11T12:27:12.638Z,47.37
2023-05-11T12:28:12.654Z,46.86
2023-05-11T12:29:12.689Z,48.03
2023-05-11T12:30:12.634Z,48.50
2023-05-11T12:31:12.606Z,47.65
2023-05-11T12:32:12.659Z,48.28
2023-05-11T12:33:12.637Z,47.78
2023-05-11T12:34:12.600Z,48.43
2023-05-11T12:35:12.579Z,48.54
2023-05-11T12:36:12.582Z,48.42
2023-05-11T12:37:12.585Z,48.05
2023-05-11T12:38:12.583Z,47.96
2023-05-11T12:39:12.553Z,47.70
2023-05-11T12:40:12.545Z,47.17
2023-05-11T12:41:12.548Z,47.11
2023-05-11T12:42:12.557Z,47.83
2023-05-11T12:43:12.589Z,48.06
2023-05-11T12:44:12.556Z,48.46
2023-05-11T12:45:12.519Z,48.99
2023-05-11T12:46:12.569Z,48.31
2023-05-11T12:47:12.567Z,47.97
2023-05-11T12:48:12.637Z,48.01
2023-05-11T12:49:12.592Z,47.94
2023-05-11T12:50:12.616Z,48.30
2023-05-11T12:51:12.576Z,47.90
2023-05-11T12:52:12.643Z,48.98